Time;durP1;ratioP1;P1;durP2;ratioP2;P2;SDS_P1;SDS_P2;PMS_P1;PMS_P2;Temp;Humidity;BMP_temperature;BMP_pressure;BME280_temperature;BME280_humidity;BME280_pressure;Samples;Min_cycle;Max_cycle;Signal;HPM_P1;HPM_P2
2022/10/09 00:00:02;;;;;;;11.68;5.30;;;;;;;;;;5125751;28;19915;-57
2022/10/09 00:02:36;;;;;;;12.43;5.38;;;;;;;;;;5105525;28;20044;-54
2022/10/09 00:05:07;;;;;;;8.93;5.38;;;;;;;;;;5072868;28;20033;-57
2022/10/09 00:11:34;;;;;;;;;;;;;;;;;;;;;
2022/10/09 00:14:32;;;;;;;6.00;4.97;;;;;;;;;;5127058;28;20051;-55
2022/10/09 00:17:13;;;;;;;6.20;3.40;;;;;;;;;;5057151;28;20137;-56
2022/10/09 00:19:47;;;;;;;4.82;3.10;;;;;;;;;;5125932;28;20437;-57
2022/10/09 00:22:45;;;;;;;4.22;2.80;;;;;;;;;;5126497;28;20072;-55
2022/10/09 00:34:41;;;;;;;3.10;2.25;;;;;;;;;;5126726;28;20058;-55
2022/10/09 00:37:55;;;;;;;;;;;;;;;;;;;;;
2022/10/09 00:40:47;;;;;;;4.85;3.38;;;;;;;;;;5044208;28;20080;-57
2022/10/09 00:43:35;;;;;;;4.10;2.97;;;;;;;;;;5099718;28;20039;-57
2022/10/09 00:46:33;;;;;;;;;;;;;;;;;;;;;
2022/10/09 00:49:21;;;;;;;6.47;3.30;;;;;;;;;;5148860;28;20051;-56
2022/10/09 00:55:18;;;;;;;5.28;4.13;;;;;;;;;;5109818;28;20027;-53
2022/10/09 00:57:53;;;;;;;5.40;3.97;;;;;;;;;;5130430;28;20027;-56
2022/10/09 01:04:20;;;;;;;5.68;3.83;;;;;;;;;;5040305;28;20124;-57
2022/10/09 01:07:05;;;;;;;5.22;3.30;;;;;;;;;;5152349;27;20417;-54
2022/10/09 01:09:49;;;;;;;6.05;5.03;;;;;;;;;;5152752;27;20369;-57
2022/10/09 01:16:06;;;;;;;;;;;;;;;;;;;;;
2022/10/09 01:19:07;;;;;;;5.32;4.22;;;;;;;;;;5098514;28;20067;-55
2022/10/09 01:21:51;;;;;;;4.60;3.85;;;;;;;;;;5074457;28;20065;-55
2022/10/09 01:24:29;;;;;;;5.72;3.65;;;;;;;;;;5108773;28;20044;-56
2022/10/09 01:27:21;;;;;;;6.20;4.63;;;;;;;;;;5109394;28;20043;-53
2022/10/09 01:33:31;;;;;;;6.15;4.43;;;;;;;;;;5023761;28;20040;-56
2022/10/09 01:36:07;;;;;;;6.15;4.57;;;;;;;;;;5047072;28;20143;-56
2022/10/09 01:38:34;;;;;;;3.90;2.95;;;;;;;;;;5071870;28;20043;-55
2022/10/09 01:41:19;;;;;;;3.55;2.92;;;;;;;;;;5071221;28;20040;-56
2022/10/09 01:46:55;;;;;;;3.13;2.15;;;;;;;;;;5044201;28;20033;-54
2022/10/09 01:49:42;;;;;;;3.50;2.60;;;;;;;;;;5047885;28;20101;-56
2022/10/09 01:52:36;;;;;;;3.67;2.38;;;;;;;;;;5015165;28;20049;-56
2022/10/09 01:55:09;;;;;;;5.88;2.63;;;;;;;;;;5048532;28;20051;-56
2022/10/09 01:58:06;;;;;;;5.32;2.70;;;;;;;;;;5048854;28;20052;-53
2022/10/09 02:00:54;;;;;;;6.70;2.67;;;;;;;;;;5053665;28;20056;-52
2022/10/09 02:06:46;;;;;;;6.70;2.10;;;;;;;;;;5097750;28;20024;-55
2022/10/09 02:09:41;;;;;;;4.93;2.85;;;;;;;;;;5092470;28;20044;-54
2022/10/09 02:12:33;;;;;;;5.38;2.38;;;;;;;;;;5089466;28;20044;-54
2022/10/09 02:15:15;;;;;;;3.55;2.88;;;;;;;;;;5134169;27;20031;-54
2022/10/09 02:21:45;;;;;;;4.72;2.78;;;;;;;;;;5129058;27;20028;-56
2022/10/09 02:24:33;;;;;;;3.33;2.13;;;;;;;;;;5031556;28;20492;-53
2022/10/09 02:27:21;;;;;;;5.43;3.35;;;;;;;;;;5048371;28;20029;-53
2022/10/09 02:30:42;;;;;;;4.03;2.88;;;;;;;;;;5047929;28;20053;-55
2022/10/09 02:36:06;;;;;;;5.63;2.53;;;;;;;;;;5130994;27;20031;-55
2022/10/09 02:38:34;;;;;;;6.97;2.65;;;;;;;;;;5151460;27;20392;-55
2022/10/09 02:41:02;;;;;;;3.25;1.80;;;;;;;;;;5150934;27;20023;-56
2022/10/09 02:43:55;;;;;;;4.85;1.90;;;;;;;;;;5151742;27;20034;-56
2022/10/09 02:46:40;;;;;;;5.60;2.80;;;;;;;;;;5145450;27;20031;-53
2022/10/09 02:52:41;;;;;;;5.78;2.63;;;;;;;;;;5067807;28;20076;-53
2022/10/09 02:55:22;;;;;;;5.90;2.42;;;;;;;;;;5067500;28;20033;-54
2022/10/09 02:57:48;;;;;;;;;;;;;;;;;;5049722;28;20037;-56
2022/10/09 03:03:34;;;;;;;5.20;3.13;;;;;;;;;;5057577;28;20450;-56
2022/10/09 03:06:30;;;;;;;4.85;2.53;;;;;;;;;;5066933;28;20100;-54
2022/10/09 03:12:20;;;;;;;4.70;3.08;;;;;;;;;;5009664;28;20068;-55
2022/10/09 03:15:09;;;;;;;;;;;;;;;;;;;;;
2022/10/09 03:20:44;;;;;;;3.83;2.38;;;;;;;;;;5067049;28;20071;-56
2022/10/09 03:26:22;;;;;;;5.15;2.30;;;;;;;;;;5078034;28;20063;-53
2022/10/09 03:29:10;;;;;;;6.07;2.70;;;;;;;;;;5106600;28;20059;-54
2022/10/09 03:32:15;;;;;;;;;;;;;;;;;;;;;
2022/10/09 03:38:15;;;;;;;3.10;2.08;;;;;;;;;;5121066;27;20031;-55
2022/10/09 03:41:16;;;;;;;5.07;1.95;;;;;;;;;;5136300;27;20034;-55
2022/10/09 03:53:00;;;;;;;4.07;2.08;;;;;;;;;;5040969;28;20469;-55
2022/10/09 03:56:03;;;;;;;;;;;;;;;;;;;;;
2022/10/09 04:04:59;;;;;;;4.70;1.90;;;;;;;;;;5044307;28;20026;-54
2022/10/09 04:08:01;;;;;;;;;;;;;;;;;;;;;
2022/10/09 04:10:40;;;;;;;6.50;3.13;;;;;;;;;;5135818;28;20032;-56
2022/10/09 04:13:23;;;;;;;4.70;3.08;;;;;;;;;;5091966;28;20028;-55
2022/10/09 04:16:34;;;;;;;;;;;;;;;;;;;;;
2022/10/09 04:19:16;;;;;;;;;;;;;;;;;;;;;
2022/10/09 04:25:14;;;;;;;;;;;;;;;;;;;;;
2022/10/09 04:28:02;;;;;;;5.13;2.63;;;;;;;;;;5091376;28;20374;-54
2022/10/09 04:30:43;;;;;;;6.03;2.22;;;;;;;;;;5091514;28;20040;-55
2022/10/09 04:33:18;;;;;;;4.07;2.53;;;;;;;;;;5091469;28;20073;-56
2022/10/09 04:39:16;;;;;;;3.10;2.15;;;;;;;;;;5095288;28;20154;-56
2022/10/09 04:42:20;;;;;;;4.25;2.15;;;;;;;;;;5095493;28;20051;-56
2022/10/09 04:45:21;;;;;;;5.13;2.78;;;;;;;;;;5128849;27;20028;-56
2022/10/09 04:47:47;;;;;;;;;;;;;;;;;;5119192;27;20481;-55
2022/10/09 04:50:35;;;;;;;5.57;2.30;;;;;;;;;;5138608;27;20052;-55
2022/10/09 04:53:16;;;;;;;3.97;2.90;;;;;;;;;;5079873;28;20498;-56
2022/10/09 04:56:12;;;;;;;9.25;3.25;;;;;;;;;;5096198;28;20035;-55
2022/10/09 05:05:04;;;;;;;;;;;;;;;;;;;;;
2022/10/09 05:08:05;;;;;;;6.70;3.78;;;;;;;;;;5075938;28;20028;-55
2022/10/09 05:10:55;;;;;;;4.53;3.05;;;;;;;;;;5056059;28;20039;-55
2022/10/09 05:13:35;;;;;;;3.72;2.53;;;;;;;;;;5002605;28;20567;-56
2022/10/09 05:17:04;;;;;;;;;;;;;;;;;;;;;
2022/10/09 05:19:32;;;;;;;9.20;3.08;;;;;;;;;;5104534;28;20032;-54
2022/10/09 05:22:02;;;;;;;6.70;3.35;;;;;;;;;;5116478;28;20028;-56
2022/10/09 05:24:39;;;;;;;3.92;2.25;;;;;;;;;;5111761;28;20424;-56
2022/10/09 05:27:20;;;;;;;3.95;2.60;;;;;;;;;;5074593;28;20043;-56
2022/10/09 05:33:12;;;;;;;5.88;2.42;;;;;;;;;;5075054;28;20466;-56
2022/10/09 05:35:52;;;;;;;2.90;2.10;;;;;;;;;;5075247;28;20024;-56
2022/10/09 05:38:38;;;;;;;3.80;2.97;;;;;;;;;;5074385;28;20028;-52
2022/10/09 05:41:14;;;;;;;5.30;2.65;;;;;;;;;;5014473;28;20042;-54
2022/10/09 05:43:55;;;;;;;6.43;3.15;;;;;;;;;;5070002;28;20039;-56
2022/10/09 05:47:00;;;;;;;4.10;3.10;;;;;;;;;;5074587;28;20509;-52
2022/10/09 05:52:38;;;;;;;7.82;3.60;;;;;;;;;;5014317;28;20053;-56
2022/10/09 05:55:37;;;;;;;5.53;2.90;;;;;;;;;;5015289;28;20038;-55
2022/10/09 05:58:44;;;;;;;5.03;3.65;;;;;;;;;;4983995;28;20047;-56
2022/10/09 06:01:27;;;;;;;3.75;3.05;;;;;;;;;;4950532;29;20042;-55
2022/10/09 06:04:08;;;;;;;4.57;3.20;;;;;;;;;;5090461;27;20036;-55
2022/10/09 06:06:34;;;;;;;;;;;;;;;;;;5138842;27;20034;-57
2022/10/09 06:09:43;;;;;;;6.07;3.45;;;;;;;;;;5118584;27;20361;-53
2022/10/09 06:12:58;;;;;;;4.47;3.88;;;;;;;;;;5136022;27;20102;-52
2022/10/09 06:15:45;;;;;;;6.10;4.07;;;;;;;;;;5030799;27;20040;-53
2022/10/09 06:18:33;;;;;;;7.70;3.85;;;;;;;;;;5136804;27;20023;-52
2022/10/09 06:21:34;;;;;;;4.70;3.53;;;;;;;;;;5118785;27;20027;-54
2022/10/09 06:30:36;;;;;;;;;;;;;;;;;;;;;
2022/10/09 06:33:15;;;;;;;6.13;3.30;;;;;;;;;;5116657;27;20421;-54
2022/10/09 06:39:18;;;;;;;3.20;2.17;;;;;;;;;;5142866;27;20039;-56
2022/10/09 06:42:35;;;;;;;;;;;;;;;;;;;;;
2022/10/09 06:48:17;;;;;;;4.30;2.85;;;;;;;;;;5136155;27;20035;-55
2022/10/09 06:51:11;;;;;;;7.45;4.28;;;;;;;;;;5136419;27;20034;-54
2022/10/09 06:54:07;;;;;;;4.63;2.83;;;;;;;;;;5105326;27;20035;-54
2022/10/09 06:57:02;;;;;;;5.50;3.13;;;;;;;;;;5130662;27;20065;-51
2022/10/09 06:59:58;;;;;;;;;;;;;;;;;;;;;
2022/10/09 07:02:36;;;;;;;5.15;3.00;;;;;;;;;;5135919;27;20400;-52
2022/10/09 07:05:15;;;;;;;5.35;2.80;;;;;;;;;;4997292;28;20037;-52
2022/10/09 07:14:05;;;;;;;7.30;3.00;;;;;;;;;;5096975;27;20034;-55
2022/10/09 07:16:44;;;;;;;4.80;2.88;;;;;;;;;;5089295;27;20031;-54
2022/10/09 07:19:45;;;;;;;;;;;;;;;;;;;;;
2022/10/09 07:22:50;;;;;;;3.72;2.95;;;;;;;;;;5072810;28;20020;-57
2022/10/09 07:25:44;;;;;;;4.22;2.83;;;;;;;;;;5072089;28;20071;-52
2022/10/09 07:37:17;;;;;;;5.78;3.08;;;;;;;;;;5060517;28;20162;-55
2022/10/09 07:39:49;;;;;;;4.97;2.42;;;;;;;;;;5055376;28;20036;-53
2022/10/09 07:42:35;;;;;;;9.57;3.75;;;;;;;;;;5072479;28;20077;-57
2022/10/09 07:48:03;;;;;;;3.58;2.45;;;;;;;;;;5071989;28;20035;-57
2022/10/09 07:50:44;;;;;;;3.78;2.30;;;;;;;;;;5113071;27;20063;-57
2022/10/09 07:53:39;;;;;;;4.63;3.38;;;;;;;;;;5114874;27;20049;-57
2022/10/09 07:56:19;;;;;;;4.15;2.60;;;;;;;;;;5135281;27;20358;-57
2022/10/09 07:59:17;;;;;;;3.97;2.25;;;;;;;;;;5117822;27;20031;-56
2022/10/09 08:02:01;;;;;;;3.33;2.60;;;;;;;;;;5087853;28;20635;-56
2022/10/09 08:08:06;;;;;;;3.70;2.80;;;;;;;;;;5131644;28;20027;-53
2022/10/09 08:10:41;;;;;;;4.97;2.70;;;;;;;;;;5137268;27;20035;-52
2022/10/09 08:13:16;;;;;;;5.97;3.10;;;;;;;;;;5139832;27;20051;-53
2022/10/09 08:16:01;;;;;;;7.28;2.85;;;;;;;;;;5140838;27;20023;-53
2022/10/09 08:18:46;;;;;;;;;;;;;;;;;;;;;
2022/10/09 08:21:38;;;;;;;5.15;3.22;;;;;;;;;;5140537;27;20404;-54
2022/10/09 08:27:09;;;;;;;4.10;2.42;;;;;;;;;;5056406;28;20459;-55
2022/10/09 08:29:45;;;;;;;9.32;3.17;;;;;;;;;;5107940;27;20067;-54
2022/10/09 08:32:36;;;;;;;6.10;3.15;;;;;;;;;;5140307;27;20049;-52
2022/10/09 08:35:27;;;;;;;3.95;2.97;;;;;;;;;;5116137;27;20092;-56
2022/10/09 08:38:08;;;;;;;3.08;2.50;;;;;;;;;;5123525;27;20490;-56
2022/10/09 08:41:09;;;;;;;;;;;;;;;;;;;;;
2022/10/09 08:43:47;;;;;;;;;;;;;;;;;;5120130;27;20118;-57
2022/10/09 08:46:24;;;;;;;5.47;2.78;;;;;;;;;;5137193;27;20363;-55
2022/10/09 08:49:29;;;;;;;;;;;;;;;;;;;;;
2022/10/09 08:58:35;;;;;;;;;;;;;;;;;;;;;
2022/10/09 09:01:07;;;;;;;4.53;2.42;;;;;;;;;;5022954;28;20044;-53
2022/10/09 09:04:14;;;;;;;6.80;2.95;;;;;;;;;;5106750;27;20046;-53
2022/10/09 09:13:33;;;;;;;3.40;2.10;;;;;;;;;;5034506;28;20502;-58
2022/10/09 09:19:21;;;;;;;5.15;1.90;;;;;;;;;;5034674;28;20068;-58
2022/10/09 09:24:59;;;;;;;4.80;2.67;;;;;;;;;;5030805;28;20030;-58
2022/10/09 09:28:01;;;;;;;;;;;;;;;;;;;;;
2022/10/09 09:31:01;;;;;;;;;;;;;;;;;;;;;
2022/10/09 09:37:08;;;;;;;4.78;1.73;;;;;;;;;;5138552;27;20518;-57
2022/10/09 09:39:49;;;;;;;4.43;1.77;;;;;;;;;;5138413;27;20072;-55
2022/10/09 09:42:55;;;;;;;5.07;1.90;;;;;;;;;;5138352;27;20023;-57
2022/10/09 09:45:48;;;;;;;6.50;2.75;;;;;;;;;;5037301;28;20060;-56
2022/10/09 09:48:43;;;;;;;4.38;1.85;;;;;;;;;;5051354;28;20444;-55
2022/10/09 09:51:36;;;;;;;3.85;2.10;;;;;;;;;;5138772;27;20058;-54
2022/10/09 09:54:23;;;;;;;5.07;1.83;;;;;;;;;;5138325;27;20147;-55
2022/10/09 09:57:15;;;;;;;2.88;1.27;;;;;;;;;;5134877;27;20481;-58
2022/10/09 09:59:52;;;;;;;3.22;1.95;;;;;;;;;;5137490;27;20086;-57
2022/10/09 10:02:33;;;;;;;3.72;1.40;;;;;;;;;;5137374;27;20027;-56
2022/10/09 10:05:39;;;;;;;8.60;2.13;;;;;;;;;;5117097;27;20480;-55
2022/10/09 10:08:44;;;;;;;7.28;2.58;;;;;;;;;;5137834;27;20491;-52
2022/10/09 10:11:26;;;;;;;2.92;1.70;;;;;;;;;;5033350;28;20136;-57
2022/10/09 10:14:16;;;;;;;1.90;1.35;;;;;;;;;;5015182;28;20052;-57
2022/10/09 10:20:32;;;;;;;;;;;;;;;;;;;;;
2022/10/09 10:26:21;;;;;;;5.28;1.17;;;;;;;;;;5030547;28;20518;-55
2022/10/09 10:29:26;;;;;;;2.17;1.35;;;;;;;;;;5016604;28;20507;-54
2022/10/09 10:32:31;;;;;;;2.65;1.30;;;;;;;;;;5016972;28;20068;-57
2022/10/09 10:35:31;;;;;;;3.03;1.70;;;;;;;;;;5099877;27;20512;-56
2022/10/09 10:38:28;;;;;;;4.68;1.35;;;;;;;;;;5137049;27;20027;-56
2022/10/09 10:41:31;;;;;;;3.00;1.55;;;;;;;;;;5136622;27;20015;-56
2022/10/09 10:44:27;;;;;;;2.13;0.90;;;;;;;;;;5137171;27;20328;-57
2022/10/09 10:47:15;;;;;;;1.80;0.90;;;;;;;;;;5115096;27;20059;-56
2022/10/09 10:53:12;;;;;;;2.47;0.90;;;;;;;;;;5032783;28;20057;-57
2022/10/09 10:58:44;;;;;;;3.65;1.10;;;;;;;;;;5053529;28;20024;-57
2022/10/09 11:04:48;;;;;;;3.85;1.20;;;;;;;;;;5036711;28;20045;-57
2022/10/09 11:07:38;;;;;;;2.35;1.02;;;;;;;;;;5016649;28;20718;-57
2022/10/09 11:10:25;;;;;;;2.30;1.17;;;;;;;;;;5030495;28;20568;-56
2022/10/09 11:13:16;;;;;;;2.45;0.93;;;;;;;;;;5038077;28;20367;-54
2022/10/09 11:16:11;;;;;;;4.90;1.00;;;;;;;;;;5032886;28;20068;-57
2022/10/09 11:19:01;;;;;;;2.05;1.25;;;;;;;;;;5040938;28;20083;-56
2022/10/09 11:28:18;;;;;;;2.22;1.17;;;;;;;;;;5020990;28;20084;-56
2022/10/09 11:37:24;;;;;;;3.35;1.40;;;;;;;;;;5090980;28;20034;-57
2022/10/09 11:42:58;;;;;;;;;;;;;;;;;;;;;
2022/10/09 11:45:56;;;;;;;3.45;1.27;;;;;;;;;;5044969;28;20387;-56
2022/10/09 12:01:46;;;;;;;3.25;1.35;;;;;;;;;;5022987;28;20034;-57
2022/10/09 12:04:15;;;;;;;3.58;1.05;;;;;;;;;;5121548;27;20129;-57
2022/10/09 12:07:14;;;;;;;1.77;0.82;;;;;;;;;;5133836;27;20405;-57
2022/10/09 12:10:15;;;;;;;2.92;1.05;;;;;;;;;;5116081;28;20126;-57
2022/10/09 12:12:47;;;;;;;;;;;;;;;;;;5083331;28;20454;-57
2022/10/09 12:15:46;;;;;;;2.50;1.10;;;;;;;;;;5135075;28;19917;-57
2022/10/09 12:18:56;;;;;;;4.15;1.38;;;;;;;;;;5117142;28;20357;-57
2022/10/09 12:22:00;;;;;;;2.63;1.05;;;;;;;;;;5032191;28;20038;-57
2022/10/09 12:24:48;;;;;;;2.15;1.08;;;;;;;;;;4973062;28;20046;-57
2022/10/09 12:30:44;;;;;;;4.78;1.23;;;;;;;;;;5030371;28;20085;-56
2022/10/09 12:33:29;;;;;;;1.83;0.88;;;;;;;;;;5115706;28;20061;-54
2022/10/09 12:36:14;;;;;;;1.77;1.00;;;;;;;;;;5134470;28;20023;-58
2022/10/09 12:38:53;;;;;;;2.20;1.25;;;;;;;;;;5111423;28;20039;-57
2022/10/09 12:41:43;;;;;;;4.05;1.10;;;;;;;;;;5085757;28;20404;-57
2022/10/09 12:47:40;;;;;;;3.08;1.30;;;;;;;;;;5086953;28;20046;-57
2022/10/09 12:53:45;;;;;;;3.28;1.00;;;;;;;;;;5023074;28;20111;-58
2022/10/09 12:56:30;;;;;;;1.77;0.85;;;;;;;;;;5100588;28;20096;-58
2022/10/09 12:59:23;;;;;;;1.75;1.08;;;;;;;;;;5108849;28;20042;-58
2022/10/09 13:05:01;;;;;;;6.30;1.50;;;;;;;;;;5068106;28;20064;-56
2022/10/09 13:07:34;;;;;;;3.20;1.42;;;;;;;;;;5058015;28;20033;-56
2022/10/09 13:13:41;;;;;;;3.45;1.30;;;;;;;;;;5009206;28;20097;-55
2022/10/09 13:16:24;;;;;;;;;;;;;;;;;;;;;
2022/10/09 13:19:03;;;;;;;4.70;1.38;;;;;;;;;;5007629;28;20069;-57
2022/10/09 13:23:00;;;;;;;;;;;;;;;;;;;;;
2022/10/09 13:25:13;;;;;;;2.00;1.10;;;;;;;;;;4953618;28;20039;-57
2022/10/09 13:28:14;;;;;;;2.10;0.93;;;;;;;;;;4988414;28;20045;-57
2022/10/09 13:30:40;;;;;;;;;;;;;;;;;;4988940;28;20073;-57
2022/10/09 13:33:28;;;;;;;3.55;1.23;;;;;;;;;;5012498;28;20271;-57
2022/10/09 13:36:00;;;;;;;2.53;1.25;;;;;;;;;;5007359;28;20072;-57
2022/10/09 13:38:49;;;;;;;1.90;0.88;;;;;;;;;;5002346;28;20424;-57
2022/10/09 13:41:37;;;;;;;;;;;;;;;;;;;;;
2022/10/09 13:44:06;;;;;;;1.83;1.00;;;;;;;;;;5087734;28;20062;-58
2022/10/09 13:46:52;;;;;;;2.28;1.33;;;;;;;;;;5086960;28;20096;-56
2022/10/09 13:49:50;;;;;;;2.05;0.80;;;;;;;;;;5086062;28;20089;-57
2022/10/09 13:52:29;;;;;;;1.70;0.80;;;;;;;;;;5090719;27;20056;-57
2022/10/09 13:55:14;;;;;;;2.55;0.93;;;;;;;;;;5150205;27;20480;-57
2022/10/09 14:01:13;;;;;;;2.05;1.23;;;;;;;;;;5022984;28;20064;-57
2022/10/09 14:06:41;;;;;;;1.92;1.25;;;;;;;;;;5046616;28;20068;-58
2022/10/09 14:09:33;;;;;;;4.15;1.45;;;;;;;;;;5045909;28;20048;-57
2022/10/09 14:12:27;;;;;;;;;;;;;;;;;;;;;
2022/10/09 14:18:33;;;;;;;3.65;1.77;;;;;;;;;;5046632;28;20044;-57
2022/10/09 14:27:51;;;;;;;1.70;0.90;;;;;;;;;;5046907;28;20037;-56
2022/10/09 14:36:45;;;;;;;3.25;1.30;;;;;;;;;;5144553;27;20055;-57
2022/10/09 14:42:27;;;;;;;2.45;1.30;;;;;;;;;;5090383;27;20027;-57
2022/10/09 14:47:59;;;;;;;1.98;1.20;;;;;;;;;;5102653;27;20033;-57
2022/10/09 14:50:47;;;;;;;;;;;;;;;;;;;;;
2022/10/09 14:53:18;;;;;;;2.55;1.17;;;;;;;;;;5126009;27;20384;-57
2022/10/09 14:56:04;;;;;;;;;;;;;;;;;;;;;
2022/10/09 14:58:34;;;;;;;4.75;1.58;;;;;;;;;;5136996;27;20429;-58
2022/10/09 15:01:22;;;;;;;3.03;1.80;;;;;;;;;;5135282;27;20035;-57
2022/10/09 15:07:27;;;;;;;3.08;1.40;;;;;;;;;;5135456;27;20061;-58
2022/10/09 15:16:13;;;;;;;4.95;1.23;;;;;;;;;;5052107;28;20032;-57
2022/10/09 15:19:07;;;;;;;2.72;1.92;;;;;;;;;;5052425;28;20036;-57
2022/10/09 15:24:51;;;;;;;;;;;;;;;;;;;;;
2022/10/09 15:37:15;;;;;;;3.78;2.20;;;;;;;;;;5096656;27;20168;-58
2022/10/09 15:39:59;;;;;;;3.45;1.70;;;;;;;;;;5134472;27;20464;-58
2022/10/09 15:42:57;;;;;;;4.20;2.05;;;;;;;;;;5118032;27;20091;-57
2022/10/09 15:45:52;;;;;;;2.80;2.20;;;;;;;;;;5079616;27;20035;-57
2022/10/09 15:48:59;;;;;;;5.10;2.53;;;;;;;;;;5136025;27;20122;-58
2022/10/09 15:51:32;;;;;;;3.13;1.85;;;;;;;;;;5015672;28;20483;-56
2022/10/09 15:56:59;;;;;;;4.30;2.05;;;;;;;;;;5023043;28;20124;-57
2022/10/09 15:59:56;;;;;;;3.10;2.13;;;;;;;;;;5063121;27;20046;-57
2022/10/09 16:02:58;;;;;;;3.60;2.20;;;;;;;;;;5135224;27;20031;-59
2022/10/09 16:05:35;;;;;;;3.58;2.15;;;;;;;;;;5134540;27;20061;-57
2022/10/09 16:08:20;;;;;;;6.65;2.83;;;;;;;;;;5136413;27;20038;-56
2022/10/09 16:11:28;;;;;;;2.92;2.05;;;;;;;;;;5136663;28;20039;-57
2022/10/09 16:14:05;;;;;;;3.90;2.35;;;;;;;;;;5139572;28;20111;-57
2022/10/09 16:22:54;;;;;;;2.90;2.08;;;;;;;;;;5117018;28;20529;-58
2022/10/09 16:25:29;;;;;;;5.18;2.70;;;;;;;;;;5118931;28;20030;-57
2022/10/09 16:28:08;;;;;;;3.95;2.22;;;;;;;;;;5135307;28;20026;-57
2022/10/09 16:30:55;;;;;;;5.75;2.15;;;;;;;;;;5116081;27;20484;-57
2022/10/09 16:33:57;;;;;;;4.25;2.75;;;;;;;;;;5119735;27;20024;-58
2022/10/09 16:36:41;;;;;;;3.70;2.53;;;;;;;;;;5138104;27;20172;-58
2022/10/09 16:39:22;;;;;;;6.63;3.17;;;;;;;;;;5139979;27;20464;-58
2022/10/09 16:42:05;;;;;;;4.10;2.70;;;;;;;;;;5139315;27;20456;-58
2022/10/09 16:47:43;;;;;;;5.50;2.53;;;;;;;;;;5120589;27;20053;-58
2022/10/09 16:50:20;;;;;;;7.45;2.80;;;;;;;;;;5138625;27;20114;-57
2022/10/09 16:53:07;;;;;;;4.40;2.92;;;;;;;;;;5138903;27;20024;-57
2022/10/09 16:55:36;;;;;;;3.95;3.42;;;;;;;;;;5095907;28;20109;-58
2022/10/09 16:58:08;;;;;;;5.03;2.88;;;;;;;;;;5095959;28;20031;-55
2022/10/09 17:01:22;;;;;;;5.07;2.78;;;;;;;;;;5078371;28;20081;-57
2022/10/09 17:06:44;;;;;;;;;;;;;;;;;;;;;
2022/10/09 17:09:19;;;;;;;4.00;2.78;;;;;;;;;;5087875;28;20051;-56
2022/10/09 17:12:17;;;;;;;5.90;3.33;;;;;;;;;;5073782;28;20067;-57
2022/10/09 17:14:43;;;;;;;9.07;4.95;;;;;;;;;;5077817;28;20590;-56
2022/10/09 17:20:54;;;;;;;6.18;3.13;;;;;;;;;;5039385;28;20465;-55
2022/10/09 17:30:10;;;;;;;4.65;3.42;;;;;;;;;;4995245;28;20085;-56
2022/10/09 17:35:57;;;;;;;7.28;3.97;;;;;;;;;;5013761;28;20029;-57
2022/10/09 17:41:25;;;;;;;10.80;5.57;;;;;;;;;;5080916;28;20134;-53
2022/10/09 17:44:37;;;;;;;;;;;;;;;;;;;;;
2022/10/09 17:47:15;;;;;;;9.13;3.63;;;;;;;;;;5094962;28;20450;-56
2022/10/09 17:50:02;;;;;;;4.38;2.97;;;;;;;;;;5095235;28;20048;-58
2022/10/09 17:52:42;;;;;;;5.85;4.20;;;;;;;;;;5094223;28;20470;-56
2022/10/09 18:01:39;;;;;;;4.38;3.10;;;;;;;;;;5014838;28;20065;-56
2022/10/09 18:04:34;;;;;;;5.38;3.60;;;;;;;;;;5094626;28;20036;-55
2022/10/09 18:07:44;;;;;;;7.05;4.15;;;;;;;;;;5093822;28;20125;-56
2022/10/09 18:10:21;;;;;;;6.33;3.93;;;;;;;;;;5047498;28;20106;-57
2022/10/09 18:12:50;;;;;;;5.15;3.28;;;;;;;;;;5076198;27;20035;-56
2022/10/09 18:18:32;;;;;;;13.55;8.77;;;;;;;;;;5034137;28;20026;-57
2022/10/09 18:21:15;;;;;;;11.52;7.93;;;;;;;;;;5108155;27;20031;-57
2022/10/09 18:24:14;;;;;;;;;;;;;;;;;;;;;
2022/10/09 18:27:02;;;;;;;;;;;;;;;;;;;;;
2022/10/09 18:29:51;;;;;;;12.43;9.25;;;;;;;;;;5134001;27;20130;-56
2022/10/09 18:39:08;;;;;;;12.52;8.00;;;;;;;;;;5095784;28;20111;-57
2022/10/09 18:41:57;;;;;;;10.48;7.60;;;;;;;;;;5133393;27;20464;-57
2022/10/09 18:44:32;;;;;;;9.52;7.13;;;;;;;;;;5137048;27;20020;-56
2022/10/09 18:47:27;;;;;;;;;;;;;;;;;;;;;
2022/10/09 18:50:19;;;;;;;7.88;6.60;;;;;;;;;;5123425;27;20043;-57
2022/10/09 18:52:52;;;;;;;6.40;5.75;;;;;;;;;;5114382;27;20031;-57
2022/10/09 18:55:47;;;;;;;7.75;4.63;;;;;;;;;;5135778;27;20055;-57
2022/10/09 18:58:29;;;;;;;6.30;5.47;;;;;;;;;;5117897;27;20377;-57
2022/10/09 19:01:31;;;;;;;7.20;5.32;;;;;;;;;;5136943;27;20467;-55
2022/10/09 19:03:58;;;;;;;8.48;5.18;;;;;;;;;;5032692;28;20036;-55
2022/10/09 19:10:09;;;;;;;;;;;;;;;;;;;;;
2022/10/09 19:12:58;;;;;;;7.50;5.13;;;;;;;;;;5031755;28;20430;-57
2022/10/09 19:15:53;;;;;;;5.65;3.75;;;;;;;;;;5005078;28;20044;-57
2022/10/09 19:18:38;;;;;;;6.78;4.32;;;;;;;;;;4973479;28;20481;-58
2022/10/09 19:21:25;;;;;;;7.30;5.22;;;;;;;;;;4974616;28;20066;-57
2022/10/09 19:24:19;;;;;;;7.47;4.85;;;;;;;;;;5024187;28;20396;-58
2022/10/09 19:26:54;;;;;;;6.65;4.85;;;;;;;;;;5032501;28;20032;-56
2022/10/09 19:29:48;;;;;;;5.10;4.32;;;;;;;;;;5015074;28;20040;-56
2022/10/09 19:32:52;;;;;;;8.10;4.85;;;;;;;;;;5104600;27;20046;-55
2022/10/09 19:38:43;;;;;;;5.00;4.35;;;;;;;;;;5111401;27;20117;-56
2022/10/09 19:41:25;;;;;;;6.72;5.20;;;;;;;;;;5140617;27;20039;-58
2022/10/09 19:47:11;;;;;;;4.90;4.05;;;;;;;;;;5021331;28;20034;-58
2022/10/09 19:55:41;;;;;;;7.00;6.13;;;;;;;;;;5145440;27;20034;-55
2022/10/09 19:58:26;;;;;;;12.90;10.15;;;;;;;;;;5144466;27;20043;-58
2022/10/09 20:01:21;;;;;;;16.17;10.45;;;;;;;;;;5142877;27;20452;-57
2022/10/09 20:04:34;;;;;;;10.02;9.02;;;;;;;;;;5043460;28;20064;-58
2022/10/09 20:10:46;;;;;;;10.52;6.22;;;;;;;;;;5003942;28;20128;-56
2022/10/09 20:13:30;;;;;;;8.43;6.15;;;;;;;;;;5041871;28;20025;-57
2022/10/09 20:16:36;;;;;;;7.95;6.20;;;;;;;;;;5012306;28;20029;-58
2022/10/09 20:22:37;;;;;;;8.85;5.80;;;;;;;;;;5141423;28;20026;-56
2022/10/09 20:25:30;;;;;;;;;;;;;;;;;;;;;
2022/10/09 20:31:19;;;;;;;7.25;5.90;;;;;;;;;;5146755;28;20046;-58
2022/10/09 20:37:07;;;;;;;7.70;5.13;;;;;;;;;;5043424;28;20036;-58
2022/10/09 20:39:48;;;;;;;8.50;5.80;;;;;;;;;;5142890;28;20276;-57
2022/10/09 20:42:53;;;;;;;7.63;4.88;;;;;;;;;;5134859;28;20083;-58
2022/10/09 20:48:27;;;;;;;7.22;5.45;;;;;;;;;;5031682;28;20028;-58
2022/10/09 20:51:01;;;;;;;8.10;5.85;;;;;;;;;;5021357;28;20041;-57
2022/10/09 20:53:56;;;;;;;10.57;6.68;;;;;;;;;;5031898;28;20032;-57
2022/10/09 20:56:54;;;;;;;9.40;5.50;;;;;;;;;;5013865;28;20034;-57
2022/10/09 20:59:58;;;;;;;6.95;5.50;;;;;;;;;;5026578;28;20143;-56
2022/10/09 21:05:32;;;;;;;8.20;5.18;;;;;;;;;;5100694;28;20039;-56
2022/10/09 21:08:30;;;;;;;6.30;5.60;;;;;;;;;;5126927;28;20047;-57
2022/10/09 21:11:00;;;;;;;7.28;5.78;;;;;;;;;;5041751;28;20113;-56
2022/10/09 21:13:57;;;;;;;5.28;4.63;;;;;;;;;;5042977;28;20192;-57
2022/10/09 21:16:29;;;;;;;5.00;4.05;;;;;;;;;;4967036;28;20105;-58
2022/10/09 21:25:31;;;;;;;;;;;;;;;;;;;;;
2022/10/09 21:28:48;;;;;;;6.95;5.30;;;;;;;;;;5046774;28;20120;-58
2022/10/09 21:31:27;;;;;;;8.27;5.13;;;;;;;;;;4988587;28;20406;-58
2022/10/09 21:34:05;;;;;;;10.70;5.22;;;;;;;;;;4975275;28;20046;-58
2022/10/09 21:42:35;;;;;;;;;;;;;;;;;;;;;
2022/10/09 21:48:34;;;;;;;7.72;4.45;;;;;;;;;;5150435;27;20065;-57
2022/10/09 21:51:11;;;;;;;7.30;5.10;;;;;;;;;;5145881;27;20039;-57
2022/10/09 21:54:03;;;;;;;8.70;4.63;;;;;;;;;;5150502;27;20540;-57
2022/10/09 21:59:31;;;;;;;5.63;4.82;;;;;;;;;;5149420;27;20039;-57
2022/10/09 22:02:23;;;;;;;;;;;;;;;;;;;;;
2022/10/09 22:05:07;;;;;;;6.68;5.30;;;;;;;;;;5143955;27;20051;-58
2022/10/09 22:08:04;;;;;;;6.30;4.72;;;;;;;;;;5119311;27;20039;-57
2022/10/09 22:10:31;;;;;;;8.02;4.93;;;;;;;;;;5130836;27;20039;-58
2022/10/09 22:13:26;;;;;;;6.95;4.63;;;;;;;;;;5130477;27;20062;-56
2022/10/09 22:16:18;;;;;;;6.47;5.03;;;;;;;;;;5129657;27;20707;-58
2022/10/09 22:22:00;;;;;;;5.63;4.72;;;;;;;;;;5126292;27;20440;-58
2022/10/09 22:25:01;;;;;;;6.20;5.28;;;;;;;;;;5095178;27;20031;-58
2022/10/09 22:27:54;;;;;;;7.28;5.13;;;;;;;;;;5129923;27;20046;-57
2022/10/09 22:30:27;;;;;;;5.85;4.20;;;;;;;;;;5143595;27;20111;-58
2022/10/09 22:33:04;;;;;;;8.02;4.97;;;;;;;;;;5148218;27;20044;-56
2022/10/09 22:38:47;;;;;;;7.50;4.90;;;;;;;;;;5100205;27;20034;-58
2022/10/09 22:41:41;;;;;;;6.85;4.90;;;;;;;;;;5149240;27;20031;-57
2022/10/09 22:47:05;;;;;;;9.27;5.35;;;;;;;;;;5148846;27;20058;-58
2022/10/09 22:49:44;;;;;;;6.28;4.93;;;;;;;;;;5130547;27;20027;-57
2022/10/09 23:01:42;;;;;;;7.57;5.60;;;;;;;;;;5050260;27;20084;-58
2022/10/09 23:04:36;;;;;;;;;;;;;;;;;;;;;
2022/10/09 23:07:15;;;;;;;8.45;5.93;;;;;;;;;;5074513;28;20100;-57
2022/10/09 23:09:53;;;;;;;8.32;5.55;;;;;;;;;;5068592;28;20036;-54
2022/10/09 23:12:38;;;;;;;;;;;;;;;;;;;;;
2022/10/09 23:20:54;;;;;;;6.28;5.30;;;;;;;;;;5085132;28;20044;-55
2022/10/09 23:23:30;;;;;;;11.27;5.80;;;;;;;;;;5068597;28;20426;-55
2022/10/09 23:25:59;;;;;;;7.05;5.05;;;;;;;;;;5065453;28;20025;-55
2022/10/09 23:31:41;;;;;;;6.18;5.57;;;;;;;;;;4985248;28;20050;-53
2022/10/09 23:34:25;;;;;;;6.88;6.15;;;;;;;;;;4988500;28;20031;-54
2022/10/09 23:37:17;;;;;;;10.52;6.82;;;;;;;;;;5044818;28;20036;-54
2022/10/09 23:49:10;;;;;;;7.10;5.47;;;;;;;;;;4985471;28;20027;-56
2022/10/09 23:55:05;;;;;;;10.77;6.53;;;;;;;;;;5019759;28;20163;-56
2022/10/09 23:57:55;;;;;;;9.35;6.70;;;;;;;;;;5004831;28;20184;-55
